sensor_id;sensor_type;location;lat;lon;timestamp;P1;durP1;ratioP1;P2;durP2;ratioP2
4547;SDS011;2286;51.570;7.090;2023-06-19T00:00:41;5.43;;;5.00;;
4547;SDS011;2286;51.570;7.090;2023-06-19T00:03:08;5.20;;;4.80;;
4547;SDS011;2286;51.570;7.090;2023-06-19T00:05:35;6.27;;;5.73;;
4547;SDS011;2286;51.570;7.090;2023-06-19T00:08:03;5.87;;;5.37;;
4547;SDS011;2286;51.570;7.090;2023-06-19T00:10:31;5.10;;;4.70;;
4547;SDS011;2286;51.570;7.090;2023-06-19T00:12:58;6.80;;;4.80;;
4547;SDS011;2286;51.570;7.090;2023-06-19T00:15:25;5.37;;;4.97;;
4547;SDS011;2286;51.570;7.090;2023-06-19T00:17:54;4.90;;;4.50;;
4547;SDS011;2286;51.570;7.090;2023-06-19T00:20:21;5.87;;;5.43;;
4547;SDS011;2286;51.570;7.090;2023-06-19T00:22:48;5.50;;;5.10;;
4547;SDS011;2286;51.570;7.090;2023-06-19T00:25:18;4.67;;;4.37;;
4547;SDS011;2286;51.570;7.090;2023-06-19T00:27:45;5.87;;;5.20;;
4547;SDS011;2286;51.570;7.090;2023-06-19T00:30:12;4.80;;;4.50;;
4547;SDS011;2286;51.570;7.090;2023-06-19T00:32:39;5.63;;;5.13;;
4547;SDS011;2286;51.570;7.090;2023-06-19T00:35:12;5.33;;;4.83;;
4547;SDS011;2286;51.570;7.090;2023-06-19T00:37:40;5.00;;;4.70;;
4547;SDS011;2286;51.570;7.090;2023-06-19T00:40:10;5.20;;;4.80;;
4547;SDS011;2286;51.570;7.090;2023-06-19T00:42:43;5.57;;;5.17;;
4547;SDS011;2286;51.570;7.090;2023-06-19T00:45:10;6.43;;;5.83;;
4547;SDS011;2286;51.570;7.090;2023-06-19T00:47:37;5.10;;;4.70;;
4547;SDS011;2286;51.570;7.090;2023-06-19T00:50:04;5.70;;;5.20;;
4547;SDS011;2286;51.570;7.090;2023-06-19T00:52:32;4.90;;;4.57;;
4547;SDS011;2286;51.570;7.090;2023-06-19T00:55:00;4.80;;;4.50;;
4547;SDS011;2286;51.570;7.090;2023-06-19T00:57:28;6.33;;;5.83;;
4547;SDS011;2286;51.570;7.090;2023-06-19T00:59:57;4.93;;;4.63;;
4547;SDS011;2286;51.570;7.090;2023-06-19T01:02:24;5.07;;;4.73;;
4547;SDS011;2286;51.570;7.090;2023-06-19T01:04:53;5.20;;;4.80;;
4547;SDS011;2286;51.570;7.090;2023-06-19T01:07:21;6.43;;;6.03;;
4547;SDS011;2286;51.570;7.090;2023-06-19T01:09:56;5.47;;;5.07;;
4547;SDS011;2286;51.570;7.090;2023-06-19T01:12:28;5.60;;;5.00;;
4547;SDS011;2286;51.570;7.090;2023-06-19T01:15:02;5.57;;;5.10;;
4547;SDS011;2286;51.570;7.090;2023-06-19T01:17:30;5.30;;;4.90;;
4547;SDS011;2286;51.570;7.090;2023-06-19T01:19:58;4.70;;;4.47;;
4547;SDS011;2286;51.570;7.090;2023-06-19T01:22:27;5.60;;;5.10;;
4547;SDS011;2286;51.570;7.090;2023-06-19T01:24:54;5.10;;;4.77;;
4547;SDS011;2286;51.570;7.090;2023-06-19T01:27:21;5.83;;;5.43;;
4547;SDS011;2286;51.570;7.090;2023-06-19T01:29:49;5.57;;;5.27;;
4547;SDS011;2286;51.570;7.090;2023-06-19T01:32:17;5.50;;;5.10;;
4547;SDS011;2286;51.570;7.090;2023-06-19T01:34:48;5.17;;;4.87;;
4547;SDS011;2286;51.570;7.090;2023-06-19T01:37:18;6.03;;;5.53;;
4547;SDS011;2286;51.570;7.090;2023-06-19T01:39:46;5.93;;;5.43;;
4547;SDS011;2286;51.570;7.090;2023-06-19T01:42:14;5.90;;;5.50;;
4547;SDS011;2286;51.570;7.090;2023-06-19T01:44:41;5.80;;;5.40;;
4547;SDS011;2286;51.570;7.090;2023-06-19T01:47:09;5.20;;;4.90;;
4547;SDS011;2286;51.570;7.090;2023-06-19T01:49:37;5.80;;;5.40;;
4547;SDS011;2286;51.570;7.090;2023-06-19T01:52:04;6.37;;;5.77;;
4547;SDS011;2286;51.570;7.090;2023-06-19T01:54:31;6.27;;;5.87;;
4547;SDS011;2286;51.570;7.090;2023-06-19T01:56:59;5.77;;;5.27;;
4547;SDS011;2286;51.570;7.090;2023-06-19T01:59:26;5.70;;;5.30;;
4547;SDS011;2286;51.570;7.090;2023-06-19T02:01:53;5.53;;;5.13;;
4547;SDS011;2286;51.570;7.090;2023-06-19T02:04:20;5.47;;;5.07;;
4547;SDS011;2286;51.570;7.090;2023-06-19T02:06:47;5.93;;;5.53;;
4547;SDS011;2286;51.570;7.090;2023-06-19T02:09:13;6.63;;;6.17;;
4547;SDS011;2286;51.570;7.090;2023-06-19T02:11:40;6.13;;;5.47;;
4547;SDS011;2286;51.570;7.090;2023-06-19T02:14:09;6.60;;;6.10;;
4547;SDS011;2286;51.570;7.090;2023-06-19T02:16:36;6.53;;;5.93;;
4547;SDS011;2286;51.570;7.090;2023-06-19T02:19:03;6.43;;;5.93;;
4547;SDS011;2286;51.570;7.090;2023-06-19T02:21:30;6.10;;;5.70;;
4547;SDS011;2286;51.570;7.090;2023-06-19T02:23:57;6.73;;;6.20;;
4547;SDS011;2286;51.570;7.090;2023-06-19T02:26:24;6.13;;;5.60;;
4547;SDS011;2286;51.570;7.090;2023-06-19T02:28:53;6.57;;;6.00;;
4547;SDS011;2286;51.570;7.090;2023-06-19T02:31:22;6.90;;;6.40;;
4547;SDS011;2286;51.570;7.090;2023-06-19T02:33:49;6.50;;;6.10;;
4547;SDS011;2286;51.570;7.090;2023-06-19T02:36:16;7.17;;;6.60;;
4547;SDS011;2286;51.570;7.090;2023-06-19T02:38:44;6.70;;;6.20;;
4547;SDS011;2286;51.570;7.090;2023-06-19T02:41:11;6.50;;;6.10;;
4547;SDS011;2286;51.570;7.090;2023-06-19T02:43:39;6.97;;;6.47;;
4547;SDS011;2286;51.570;7.090;2023-06-19T02:46:06;6.67;;;6.20;;
4547;SDS011;2286;51.570;7.090;2023-06-19T02:48:35;7.93;;;6.50;;
4547;SDS011;2286;51.570;7.090;2023-06-19T02:51:02;6.20;;;5.67;;
4547;SDS011;2286;51.570;7.090;2023-06-19T02:53:29;6.37;;;5.97;;
4547;SDS011;2286;51.570;7.090;2023-06-19T02:55:56;7.80;;;6.30;;
4547;SDS011;2286;51.570;7.090;2023-06-19T02:58:23;8.10;;;6.07;;
4547;SDS011;2286;51.570;7.090;2023-06-19T03:00:52;6.40;;;5.30;;
4547;SDS011;2286;51.570;7.090;2023-06-19T03:03:19;6.23;;;5.73;;
4547;SDS011;2286;51.570;7.090;2023-06-19T03:05:49;5.87;;;5.37;;
4547;SDS011;2286;51.570;7.090;2023-06-19T03:08:16;6.20;;;5.70;;
4547;SDS011;2286;51.570;7.090;2023-06-19T03:10:43;5.80;;;5.40;;
4547;SDS011;2286;51.570;7.090;2023-06-19T03:13:10;5.80;;;5.40;;
4547;SDS011;2286;51.570;7.090;2023-06-19T03:15:38;5.63;;;5.13;;
4547;SDS011;2286;51.570;7.090;2023-06-19T03:18:05;5.90;;;5.40;;
4547;SDS011;2286;51.570;7.090;2023-06-19T03:20:34;6.63;;;6.13;;
4547;SDS011;2286;51.570;7.090;2023-06-19T03:23:03;5.23;;;4.83;;
4547;SDS011;2286;51.570;7.090;2023-06-19T03:25:30;6.07;;;5.67;;
4547;SDS011;2286;51.570;7.090;2023-06-19T03:28:00;6.70;;;6.20;;
4547;SDS011;2286;51.570;7.090;2023-06-19T03:30:28;6.53;;;5.93;;
4547;SDS011;2286;51.570;7.090;2023-06-19T03:32:55;6.30;;;5.77;;
4547;SDS011;2286;51.570;7.090;2023-06-19T03:35:22;6.20;;;5.33;;
4547;SDS011;2286;51.570;7.090;2023-06-19T03:37:49;5.63;;;5.17;;
4547;SDS011;2286;51.570;7.090;2023-06-19T03:40:17;6.50;;;5.53;;
4547;SDS011;2286;51.570;7.090;2023-06-19T03:42:45;5.40;;;5.00;;
4547;SDS011;2286;51.570;7.090;2023-06-19T03:45:12;7.00;;;5.80;;
4547;SDS011;2286;51.570;7.090;2023-06-19T03:47:39;6.20;;;5.70;;
4547;SDS011;2286;51.570;7.090;2023-06-19T03:50:07;7.33;;;6.13;;
4547;SDS011;2286;51.570;7.090;2023-06-19T03:52:35;6.07;;;5.60;;
4547;SDS011;2286;51.570;7.090;2023-06-19T03:55:02;5.50;;;5.10;;
4547;SDS011;2286;51.570;7.090;2023-06-19T03:57:31;5.60;;;5.13;;
4547;SDS011;2286;51.570;7.090;2023-06-19T03:59:59;5.60;;;5.10;;
4547;SDS011;2286;51.570;7.090;2023-06-19T04:02:26;4.30;;;4.00;;
4547;SDS011;2286;51.570;7.090;2023-06-19T04:04:53;4.00;;;3.70;;
4547;SDS011;2286;51.570;7.090;2023-06-19T04:07:20;4.67;;;4.27;;
4547;SDS011;2286;51.570;7.090;2023-06-19T04:09:47;5.23;;;3.30;;
4547;SDS011;2286;51.570;7.090;2023-06-19T04:12:14;3.57;;;3.27;;
4547;SDS011;2286;51.570;7.090;2023-06-19T04:14:42;4.03;;;3.63;;
4547;SDS011;2286;51.570;7.090;2023-06-19T04:17:09;5.53;;;3.90;;
4547;SDS011;2286;51.570;7.090;2023-06-19T04:19:37;4.03;;;3.63;;
4547;SDS011;2286;51.570;7.090;2023-06-19T04:22:04;5.83;;;3.40;;
4547;SDS011;2286;51.570;7.090;2023-06-19T04:24:31;4.17;;;3.87;;
4547;SDS011;2286;51.570;7.090;2023-06-19T04:26:59;6.63;;;3.37;;
4547;SDS011;2286;51.570;7.090;2023-06-19T04:29:26;3.80;;;3.50;;
4547;SDS011;2286;51.570;7.090;2023-06-19T04:31:58;4.73;;;3.40;;
4547;SDS011;2286;51.570;7.090;2023-06-19T04:34:28;6.20;;;4.00;;
4547;SDS011;2286;51.570;7.090;2023-06-19T04:36:55;3.60;;;3.30;;
4547;SDS011;2286;51.570;7.090;2023-06-19T04:39:23;3.50;;;3.30;;
4547;SDS011;2286;51.570;7.090;2023-06-19T04:41:50;4.00;;;3.60;;
4547;SDS011;2286;51.570;7.090;2023-06-19T04:44:17;6.00;;;4.47;;
4547;SDS011;2286;51.570;7.090;2023-06-19T04:46:44;5.00;;;3.37;;
4547;SDS011;2286;51.570;7.090;2023-06-19T04:49:13;4.43;;;3.40;;
4547;SDS011;2286;51.570;7.090;2023-06-19T04:51:40;4.07;;;3.77;;
4547;SDS011;2286;51.570;7.090;2023-06-19T04:54:08;4.70;;;4.03;;
4547;SDS011;2286;51.570;7.090;2023-06-19T04:56:35;6.27;;;4.03;;
4547;SDS011;2286;51.570;7.090;2023-06-19T04:59:02;4.13;;;3.73;;
4547;SDS011;2286;51.570;7.090;2023-06-19T05:01:29;4.93;;;4.43;;
4547;SDS011;2286;51.570;7.090;2023-06-19T05:03:56;4.43;;;4.03;;
4547;SDS011;2286;51.570;7.090;2023-06-19T05:06:26;4.50;;;4.10;;
4547;SDS011;2286;51.570;7.090;2023-06-19T05:08:53;4.33;;;3.90;;
4547;SDS011;2286;51.570;7.090;2023-06-19T05:11:20;8.60;;;3.43;;
4547;SDS011;2286;51.570;7.090;2023-06-19T05:13:47;3.83;;;3.53;;
4547;SDS011;2286;51.570;7.090;2023-06-19T05:16:14;3.53;;;3.30;;
4547;SDS011;2286;51.570;7.090;2023-06-19T05:18:41;3.53;;;3.33;;
4547;SDS011;2286;51.570;7.090;2023-06-19T05:21:09;5.53;;;3.70;;
4547;SDS011;2286;51.570;7.090;2023-06-19T05:23:37;3.90;;;3.60;;
4547;SDS011;2286;51.570;7.090;2023-06-19T05:26:04;3.90;;;3.53;;
4547;SDS011;2286;51.570;7.090;2023-06-19T05:28:32;3.57;;;3.27;;
4547;SDS011;2286;51.570;7.090;2023-06-19T05:30:59;3.97;;;3.67;;
4547;SDS011;2286;51.570;7.090;2023-06-19T05:33:26;3.17;;;2.90;;
4547;SDS011;2286;51.570;7.090;2023-06-19T05:35:53;9.90;;;3.53;;
4547;SDS011;2286;51.570;7.090;2023-06-19T05:38:21;5.50;;;4.00;;
4547;SDS011;2286;51.570;7.090;2023-06-19T05:40:50;5.80;;;4.40;;
4547;SDS011;2286;51.570;7.090;2023-06-19T05:43:17;8.17;;;3.73;;
4547;SDS011;2286;51.570;7.090;2023-06-19T05:45:44;9.10;;;3.50;;
4547;SDS011;2286;51.570;7.090;2023-06-19T05:48:12;4.00;;;3.60;;
4547;SDS011;2286;51.570;7.090;2023-06-19T05:50:39;5.50;;;3.97;;
4547;SDS011;2286;51.570;7.090;2023-06-19T05:53:07;5.87;;;3.67;;
4547;SDS011;2286;51.570;7.090;2023-06-19T05:55:34;3.87;;;3.47;;
4547;SDS011;2286;51.570;7.090;2023-06-19T05:58:02;6.70;;;3.10;;
4547;SDS011;2286;51.570;7.090;2023-06-19T06:00:30;5.27;;;3.60;;
4547;SDS011;2286;51.570;7.090;2023-06-19T06:02:57;3.53;;;3.33;;
4547;SDS011;2286;51.570;7.090;2023-06-19T06:05:25;4.20;;;3.00;;
4547;SDS011;2286;51.570;7.090;2023-06-19T06:07:53;4.20;;;3.57;;
4547;SDS011;2286;51.570;7.090;2023-06-19T06:10:20;5.50;;;3.47;;
4547;SDS011;2286;51.570;7.090;2023-06-19T06:12:48;4.23;;;3.63;;
4547;SDS011;2286;51.570;7.090;2023-06-19T06:15:17;4.17;;;3.60;;
4547;SDS011;2286;51.570;7.090;2023-06-19T06:17:44;3.53;;;3.30;;
4547;SDS011;2286;51.570;7.090;2023-06-19T06:20:11;3.30;;;3.00;;
4547;SDS011;2286;51.570;7.090;2023-06-19T06:22:38;3.30;;;3.00;;
4547;SDS011;2286;51.570;7.090;2023-06-19T06:25:06;5.43;;;3.57;;
4547;SDS011;2286;51.570;7.090;2023-06-19T06:27:35;2.60;;;2.50;;
4547;SDS011;2286;51.570;7.090;2023-06-19T06:30:03;3.17;;;2.87;;
4547;SDS011;2286;51.570;7.090;2023-06-19T06:32:32;3.50;;;2.80;;
4547;SDS011;2286;51.570;7.090;2023-06-19T06:34:59;3.10;;;2.77;;
4547;SDS011;2286;51.570;7.090;2023-06-19T06:37:26;4.40;;;2.70;;
4547;SDS011;2286;51.570;7.090;2023-06-19T06:39:53;2.80;;;2.60;;
4547;SDS011;2286;51.570;7.090;2023-06-19T06:42:20;4.17;;;2.60;;
4547;SDS011;2286;51.570;7.090;2023-06-19T06:44:48;2.87;;;2.67;;
4547;SDS011;2286;51.570;7.090;2023-06-19T06:47:15;3.03;;;2.60;;
4547;SDS011;2286;51.570;7.090;2023-06-19T06:49:43;4.13;;;2.60;;
4547;SDS011;2286;51.570;7.090;2023-06-19T06:52:11;2.30;;;2.00;;
4547;SDS011;2286;51.570;7.090;2023-06-19T06:54:38;2.93;;;2.63;;
4547;SDS011;2286;51.570;7.090;2023-06-19T06:57:05;2.80;;;2.60;;
4547;SDS011;2286;51.570;7.090;2023-06-19T06:59:33;3.17;;;2.40;;
4547;SDS011;2286;51.570;7.090;2023-06-19T07:02:00;5.63;;;2.60;;
4547;SDS011;2286;51.570;7.090;2023-06-19T07:04:28;2.63;;;2.43;;
4547;SDS011;2286;51.570;7.090;2023-06-19T07:06:56;2.93;;;2.53;;
4547;SDS011;2286;51.570;7.090;2023-06-19T07:09:24;3.00;;;2.43;;
4547;SDS011;2286;51.570;7.090;2023-06-19T07:11:52;2.83;;;2.63;;
4547;SDS011;2286;51.570;7.090;2023-06-19T07:14:19;3.80;;;2.60;;
4547;SDS011;2286;51.570;7.090;2023-06-19T07:16:47;4.10;;;3.03;;
4547;SDS011;2286;51.570;7.090;2023-06-19T07:19:14;5.20;;;2.47;;
4547;SDS011;2286;51.570;7.090;2023-06-19T07:21:41;3.90;;;3.00;;
4547;SDS011;2286;51.570;7.090;2023-06-19T07:24:11;3.30;;;2.97;;
4547;SDS011;2286;51.570;7.090;2023-06-19T07:26:39;2.93;;;2.67;;
4547;SDS011;2286;51.570;7.090;2023-06-19T07:29:06;5.67;;;2.70;;
4547;SDS011;2286;51.570;7.090;2023-06-19T07:31:33;5.90;;;3.17;;
4547;SDS011;2286;51.570;7.090;2023-06-19T07:34:00;3.67;;;3.37;;
4547;SDS011;2286;51.570;7.090;2023-06-19T07:36:27;3.63;;;3.30;;
4547;SDS011;2286;51.570;7.090;2023-06-19T07:38:54;3.60;;;3.30;;
4547;SDS011;2286;51.570;7.090;2023-06-19T07:41:23;3.87;;;3.20;;
4547;SDS011;2286;51.570;7.090;2023-06-19T07:43:50;3.60;;;3.23;;
4547;SDS011;2286;51.570;7.090;2023-06-19T07:46:17;3.70;;;3.37;;
4547;SDS011;2286;51.570;7.090;2023-06-19T07:48:44;3.73;;;3.17;;
4547;SDS011;2286;51.570;7.090;2023-06-19T07:51:12;3.73;;;3.17;;
4547;SDS011;2286;51.570;7.090;2023-06-19T07:53:39;5.17;;;3.40;;
4547;SDS011;2286;51.570;7.090;2023-06-19T07:56:06;3.77;;;3.13;;
4547;SDS011;2286;51.570;7.090;2023-06-19T07:58:35;3.27;;;3.07;;
4547;SDS011;2286;51.570;7.090;2023-06-19T08:01:02;3.23;;;3.03;;
4547;SDS011;2286;51.570;7.090;2023-06-19T08:03:29;4.10;;;3.50;;
4547;SDS011;2286;51.570;7.090;2023-06-19T08:05:56;9.80;;;3.57;;
4547;SDS011;2286;51.570;7.090;2023-06-19T08:08:24;3.80;;;3.50;;
4547;SDS011;2286;51.570;7.090;2023-06-19T08:10:51;3.27;;;2.77;;
4547;SDS011;2286;51.570;7.090;2023-06-19T08:13:18;3.87;;;3.57;;
4547;SDS011;2286;51.570;7.090;2023-06-19T08:15:47;3.73;;;3.43;;
4547;SDS011;2286;51.570;7.090;2023-06-19T08:18:14;3.47;;;3.10;;
4547;SDS011;2286;51.570;7.090;2023-06-19T08:20:41;4.30;;;3.90;;
4547;SDS011;2286;51.570;7.090;2023-06-19T08:23:08;5.33;;;3.67;;
4547;SDS011;2286;51.570;7.090;2023-06-19T08:25:35;3.67;;;3.27;;
4547;SDS011;2286;51.570;7.090;2023-06-19T08:28:02;4.97;;;3.70;;
4547;SDS011;2286;51.570;7.090;2023-06-19T08:30:30;4.83;;;3.70;;
4547;SDS011;2286;51.570;7.090;2023-06-19T08:32:58;4.50;;;3.73;;
4547;SDS011;2286;51.570;7.090;2023-06-19T08:35:25;3.50;;;3.20;;
4547;SDS011;2286;51.570;7.090;2023-06-19T08:37:52;5.90;;;3.50;;
4547;SDS011;2286;51.570;7.090;2023-06-19T08:40:19;10.10;;;3.30;;
4547;SDS011;2286;51.570;7.090;2023-06-19T08:42:47;4.93;;;3.10;;
4547;SDS011;2286;51.570;7.090;2023-06-19T08:45:14;3.83;;;2.70;;
4547;SDS011;2286;51.570;7.090;2023-06-19T08:47:43;4.13;;;2.90;;
4547;SDS011;2286;51.570;7.090;2023-06-19T08:50:12;5.70;;;2.90;;
4547;SDS011;2286;51.570;7.090;2023-06-19T08:52:39;4.57;;;3.23;;
4547;SDS011;2286;51.570;7.090;2023-06-19T08:55:06;4.73;;;3.00;;
4547;SDS011;2286;51.570;7.090;2023-06-19T08:57:34;2.97;;;2.67;;
4547;SDS011;2286;51.570;7.090;2023-06-19T09:00:03;2.53;;;2.33;;
4547;SDS011;2286;51.570;7.090;2023-06-19T09:02:41;2.83;;;2.43;;
4547;SDS011;2286;51.570;7.090;2023-06-19T09:05:14;2.40;;;2.20;;
4547;SDS011;2286;51.570;7.090;2023-06-19T09:07:43;3.53;;;3.07;;
4547;SDS011;2286;51.570;7.090;2023-06-19T09:10:12;2.40;;;2.20;;
4547;SDS011;2286;51.570;7.090;2023-06-19T09:12:41;2.53;;;2.23;;
4547;SDS011;2286;51.570;7.090;2023-06-19T09:15:12;3.20;;;2.20;;
4547;SDS011;2286;51.570;7.090;2023-06-19T09:17:40;6.20;;;3.00;;
4547;SDS011;2286;51.570;7.090;2023-06-19T09:20:07;3.77;;;2.80;;
4547;SDS011;2286;51.570;7.090;2023-06-19T09:22:38;3.07;;;2.77;;
4547;SDS011;2286;51.570;7.090;2023-06-19T09:25:06;2.70;;;2.50;;
4547;SDS011;2286;51.570;7.090;2023-06-19T09:27:35;3.00;;;2.80;;
4547;SDS011;2286;51.570;7.090;2023-06-19T09:30:04;7.20;;;3.10;;
4547;SDS011;2286;51.570;7.090;2023-06-19T09:32:33;3.37;;;3.07;;
4547;SDS011;2286;51.570;7.090;2023-06-19T09:35:01;6.13;;;3.27;;
4547;SDS011;2286;51.570;7.090;2023-06-19T09:37:29;6.87;;;2.80;;
4547;SDS011;2286;51.570;7.090;2023-06-19T09:39:59;7.30;;;3.70;;
4547;SDS011;2286;51.570;7.090;2023-06-19T09:42:35;4.03;;;3.63;;
4547;SDS011;2286;51.570;7.090;2023-06-19T09:45:03;6.50;;;3.10;;
4547;SDS011;2286;51.570;7.090;2023-06-19T09:47:34;4.40;;;3.40;;
4547;SDS011;2286;51.570;7.090;2023-06-19T09:50:03;8.83;;;4.43;;
4547;SDS011;2286;51.570;7.090;2023-06-19T09:52:32;5.20;;;4.70;;
4547;SDS011;2286;51.570;7.090;2023-06-19T09:55:02;5.63;;;3.53;;
4547;SDS011;2286;51.570;7.090;2023-06-19T09:57:31;3.67;;;3.27;;
4547;SDS011;2286;51.570;7.090;2023-06-19T10:00:00;4.70;;;3.37;;
4547;SDS011;2286;51.570;7.090;2023-06-19T10:02:35;4.30;;;4.00;;
4547;SDS011;2286;51.570;7.090;2023-06-19T10:05:03;3.37;;;3.00;;
4547;SDS011;2286;51.570;7.090;2023-06-19T10:07:34;3.30;;;3.10;;
4547;SDS011;2286;51.570;7.090;2023-06-19T10:10:04;4.00;;;3.53;;
4547;SDS011;2286;51.570;7.090;2023-06-19T10:12:40;5.37;;;3.17;;
4547;SDS011;2286;51.570;7.090;2023-06-19T10:15:09;3.37;;;3.17;;
4547;SDS011;2286;51.570;7.090;2023-06-19T10:17:43;5.67;;;3.47;;
4547;SDS011;2286;51.570;7.090;2023-06-19T10:20:23;3.93;;;3.63;;
4547;SDS011;2286;51.570;7.090;2023-06-19T10:23:02;4.53;;;4.10;;
4547;SDS011;2286;51.570;7.090;2023-06-19T10:25:34;4.37;;;3.93;;
4547;SDS011;2286;51.570;7.090;2023-06-19T10:28:02;3.53;;;3.23;;
4547;SDS011;2286;51.570;7.090;2023-06-19T10:30:31;3.73;;;3.07;;
4547;SDS011;2286;51.570;7.090;2023-06-19T10:33:00;4.50;;;3.40;;
4547;SDS011;2286;51.570;7.090;2023-06-19T10:35:29;4.00;;;3.70;;
4547;SDS011;2286;51.570;7.090;2023-06-19T10:38:05;4.33;;;3.57;;
4547;SDS011;2286;51.570;7.090;2023-06-19T10:40:34;4.10;;;3.70;;
4547;SDS011;2286;51.570;7.090;2023-06-19T10:43:02;3.67;;;3.37;;
4547;SDS011;2286;51.570;7.090;2023-06-19T10:45:30;4.07;;;3.77;;
4547;SDS011;2286;51.570;7.090;2023-06-19T10:47:57;4.13;;;3.80;;
4547;SDS011;2286;51.570;7.090;2023-06-19T10:50:27;3.87;;;3.57;;
4547;SDS011;2286;51.570;7.090;2023-06-19T10:52:54;4.07;;;3.77;;
4547;SDS011;2286;51.570;7.090;2023-06-19T10:55:23;4.40;;;4.10;;
4547;SDS011;2286;51.570;7.090;2023-06-19T10:57:52;4.83;;;4.33;;
4547;SDS011;2286;51.570;7.090;2023-06-19T11:00:23;4.50;;;4.10;;
4547;SDS011;2286;51.570;7.090;2023-06-19T11:02:51;4.57;;;4.17;;
4547;SDS011;2286;51.570;7.090;2023-06-19T11:05:19;5.07;;;4.30;;
4547;SDS011;2286;51.570;7.090;2023-06-19T11:07:51;4.27;;;3.87;;
4547;SDS011;2286;51.570;7.090;2023-06-19T11:10:19;6.67;;;4.33;;
4547;SDS011;2286;51.570;7.090;2023-06-19T11:12:47;3.97;;;3.67;;
4547;SDS011;2286;51.570;7.090;2023-06-19T11:15:17;5.00;;;4.50;;
4547;SDS011;2286;51.570;7.090;2023-06-19T11:17:44;5.90;;;4.20;;
4547;SDS011;2286;51.570;7.090;2023-06-19T11:20:11;4.53;;;3.77;;
4547;SDS011;2286;51.570;7.090;2023-06-19T11:22:40;5.00;;;4.50;;
4547;SDS011;2286;51.570;7.090;2023-06-19T11:25:08;5.37;;;4.87;;
4547;SDS011;2286;51.570;7.090;2023-06-19T11:27:37;8.17;;;5.20;;
4547;SDS011;2286;51.570;7.090;2023-06-19T11:30:06;6.90;;;5.10;;
4547;SDS011;2286;51.570;7.090;2023-06-19T11:32:36;6.13;;;5.37;;
4547;SDS011;2286;51.570;7.090;2023-06-19T11:35:07;5.80;;;4.80;;
4547;SDS011;2286;51.570;7.090;2023-06-19T11:37:36;5.60;;;5.20;;
4547;SDS011;2286;51.570;7.090;2023-06-19T11:40:06;5.27;;;4.77;;
4547;SDS011;2286;51.570;7.090;2023-06-19T11:42:47;8.97;;;5.13;;
4547;SDS011;2286;51.570;7.090;2023-06-19T11:45:14;5.00;;;4.60;;
4547;SDS011;2286;51.570;7.090;2023-06-19T11:47:46;5.33;;;4.83;;
4547;SDS011;2286;51.570;7.090;2023-06-19T11:50:15;5.40;;;4.90;;
4547;SDS011;2286;51.570;7.090;2023-06-19T11:52:43;5.63;;;4.97;;
4547;SDS011;2286;51.570;7.090;2023-06-19T11:55:10;5.70;;;5.00;;
4547;SDS011;2286;51.570;7.090;2023-06-19T11:57:39;5.10;;;4.70;;
4547;SDS011;2286;51.570;7.090;2023-06-19T12:00:12;5.10;;;4.70;;
4547;SDS011;2286;51.570;7.090;2023-06-19T12:02:41;5.70;;;5.20;;
4547;SDS011;2286;51.570;7.090;2023-06-19T12:05:09;5.33;;;4.83;;
4547;SDS011;2286;51.570;7.090;2023-06-19T12:07:37;5.30;;;4.90;;
4547;SDS011;2286;51.570;7.090;2023-06-19T12:10:04;5.00;;;4.60;;
4547;SDS011;2286;51.570;7.090;2023-06-19T12:12:35;5.80;;;5.40;;
4547;SDS011;2286;51.570;7.090;2023-06-19T12:15:04;9.30;;;5.60;;
4547;SDS011;2286;51.570;7.090;2023-06-19T12:17:32;6.47;;;5.87;;
4547;SDS011;2286;51.570;7.090;2023-06-19T12:19:59;6.60;;;6.10;;
4547;SDS011;2286;51.570;7.090;2023-06-19T12:22:32;6.17;;;5.57;;
4547;SDS011;2286;51.570;7.090;2023-06-19T12:24:59;6.20;;;5.67;;
4547;SDS011;2286;51.570;7.090;2023-06-19T12:27:26;6.13;;;5.63;;
4547;SDS011;2286;51.570;7.090;2023-06-19T12:29:53;7.70;;;6.00;;
4547;SDS011;2286;51.570;7.090;2023-06-19T12:32:21;7.33;;;6.40;;
4547;SDS011;2286;51.570;7.090;2023-06-19T12:34:48;5.80;;;5.30;;
4547;SDS011;2286;51.570;7.090;2023-06-19T12:37:19;5.87;;;5.33;;
4547;SDS011;2286;51.570;7.090;2023-06-19T12:39:48;6.37;;;5.87;;
4547;SDS011;2286;51.570;7.090;2023-06-19T12:42:16;5.90;;;5.30;;
4547;SDS011;2286;51.570;7.090;2023-06-19T12:44:44;5.30;;;4.90;;
4547;SDS011;2286;51.570;7.090;2023-06-19T12:47:12;7.07;;;6.10;;
4547;SDS011;2286;51.570;7.090;2023-06-19T12:49:40;6.10;;;5.50;;
4547;SDS011;2286;51.570;7.090;2023-06-19T12:52:07;6.53;;;5.93;;
4547;SDS011;2286;51.570;7.090;2023-06-19T12:54:34;6.47;;;5.57;;
4547;SDS011;2286;51.570;7.090;2023-06-19T12:57:03;6.20;;;5.70;;
4547;SDS011;2286;51.570;7.090;2023-06-19T12:59:31;5.07;;;4.77;;
4547;SDS011;2286;51.570;7.090;2023-06-19T13:01:58;9.00;;;6.23;;
4547;SDS011;2286;51.570;7.090;2023-06-19T13:04:26;5.83;;;5.23;;
4547;SDS011;2286;51.570;7.090;2023-06-19T13:06:53;8.33;;;6.20;;
4547;SDS011;2286;51.570;7.090;2023-06-19T13:09:20;8.50;;;6.10;;
4547;SDS011;2286;51.570;7.090;2023-06-19T13:11:47;6.77;;;5.50;;
4547;SDS011;2286;51.570;7.090;2023-06-19T13:14:16;6.33;;;5.80;;
4547;SDS011;2286;51.570;7.090;2023-06-19T13:16:43;6.73;;;5.90;;
4547;SDS011;2286;51.570;7.090;2023-06-19T13:19:10;7.83;;;5.73;;
4547;SDS011;2286;51.570;7.090;2023-06-19T13:21:37;12.47;;;6.00;;
4547;SDS011;2286;51.570;7.090;2023-06-19T13:24:04;5.70;;;5.23;;
4547;SDS011;2286;51.570;7.090;2023-06-19T13:26:32;5.47;;;5.13;;
4547;SDS011;2286;51.570;7.090;2023-06-19T13:28:59;6.43;;;5.30;;
4547;SDS011;2286;51.570;7.090;2023-06-19T13:31:27;5.37;;;4.97;;
4547;SDS011;2286;51.570;7.090;2023-06-19T13:33:54;5.40;;;5.07;;
4547;SDS011;2286;51.570;7.090;2023-06-19T13:36:22;5.47;;;5.03;;
4547;SDS011;2286;51.570;7.090;2023-06-19T13:38:51;5.30;;;4.70;;
4547;SDS011;2286;51.570;7.090;2023-06-19T13:41:19;4.73;;;4.37;;
4547;SDS011;2286;51.570;7.090;2023-06-19T13:43:48;5.87;;;5.30;;
4547;SDS011;2286;51.570;7.090;2023-06-19T13:46:16;5.73;;;5.23;;
4547;SDS011;2286;51.570;7.090;2023-06-19T13:48:44;5.13;;;4.73;;
4547;SDS011;2286;51.570;7.090;2023-06-19T13:51:15;5.03;;;4.73;;
4547;SDS011;2286;51.570;7.090;2023-06-19T13:53:42;5.57;;;5.10;;
4547;SDS011;2286;51.570;7.090;2023-06-19T13:56:10;5.27;;;4.87;;
4547;SDS011;2286;51.570;7.090;2023-06-19T13:58:37;6.67;;;4.70;;
4547;SDS011;2286;51.570;7.090;2023-06-19T14:01:04;4.90;;;4.50;;
4547;SDS011;2286;51.570;7.090;2023-06-19T14:03:32;6.13;;;4.37;;
4547;SDS011;2286;51.570;7.090;2023-06-19T14:06:00;5.00;;;4.60;;
4547;SDS011;2286;51.570;7.090;2023-06-19T14:08:27;5.07;;;4.60;;
4547;SDS011;2286;51.570;7.090;2023-06-19T14:10:55;4.70;;;4.40;;
4547;SDS011;2286;51.570;7.090;2023-06-19T14:13:22;4.90;;;4.40;;
4547;SDS011;2286;51.570;7.090;2023-06-19T14:15:49;4.73;;;4.07;;
4547;SDS011;2286;51.570;7.090;2023-06-19T14:18:18;4.60;;;4.20;;
4547;SDS011;2286;51.570;7.090;2023-06-19T14:20:45;4.30;;;3.90;;
4547;SDS011;2286;51.570;7.090;2023-06-19T14:23:13;5.83;;;4.47;;
4547;SDS011;2286;51.570;7.090;2023-06-19T14:25:40;4.80;;;4.30;;
4547;SDS011;2286;51.570;7.090;2023-06-19T14:28:08;4.67;;;4.23;;
4547;SDS011;2286;51.570;7.090;2023-06-19T14:30:35;4.60;;;4.30;;
4547;SDS011;2286;51.570;7.090;2023-06-19T14:33:02;4.57;;;4.27;;
4547;SDS011;2286;51.570;7.090;2023-06-19T14:35:29;5.60;;;4.10;;
4547;SDS011;2286;51.570;7.090;2023-06-19T14:37:56;4.73;;;4.23;;
4547;SDS011;2286;51.570;7.090;2023-06-19T14:40:25;8.30;;;5.00;;
4547;SDS011;2286;51.570;7.090;2023-06-19T14:42:52;5.63;;;5.10;;
4547;SDS011;2286;51.570;7.090;2023-06-19T14:45:19;5.13;;;4.73;;
4547;SDS011;2286;51.570;7.090;2023-06-19T14:47:46;4.43;;;4.13;;
4547;SDS011;2286;51.570;7.090;2023-06-19T14:50:13;5.40;;;4.93;;
4547;SDS011;2286;51.570;7.090;2023-06-19T14:52:41;4.47;;;4.17;;
4547;SDS011;2286;51.570;7.090;2023-06-19T14:55:09;7.03;;;5.27;;
4547;SDS011;2286;51.570;7.090;2023-06-19T14:57:38;5.93;;;4.53;;
4547;SDS011;2286;51.570;7.090;2023-06-19T15:00:06;5.20;;;4.80;;
4547;SDS011;2286;51.570;7.090;2023-06-19T15:02:33;4.87;;;4.40;;
4547;SDS011;2286;51.570;7.090;2023-06-19T15:05:01;6.37;;;5.10;;
4547;SDS011;2286;51.570;7.090;2023-06-19T15:07:28;5.50;;;5.00;;
4547;SDS011;2286;51.570;7.090;2023-06-19T15:09:55;5.70;;;4.53;;
4547;SDS011;2286;51.570;7.090;2023-06-19T15:12:22;4.37;;;4.07;;
4547;SDS011;2286;51.570;7.090;2023-06-19T15:14:51;3.63;;;3.43;;
4547;SDS011;2286;51.570;7.090;2023-06-19T15:17:18;4.30;;;4.00;;
4547;SDS011;2286;51.570;7.090;2023-06-19T15:19:45;4.40;;;4.10;;